sensor_id;sensor_type;location;lat;lon;timestamp;pressure;altitude;pressure_sealevel;temperature;humidity
56558;BME280;43358;50.356;12.456;2023-03-01T00:00:42;96490;;;-5.9;89.6
56558;BME280;43358;50.356;12.456;2023-03-01T00:01:44;96489;;;-6;89.4
56558;BME280;43358;50.356;12.456;2023-03-01T00:02:46;96487;;;-6.1;89.5
56558;BME280;43358;50.356;12.456;2023-03-01T00:03:48;96492;;;-6.1;89.8
56558;BME280;43358;50.356;12.456;2023-03-01T00:04:50;96491;;;-6.2;89.8
56558;BME280;43358;50.356;12.456;2023-03-01T00:05:52;96492;;;-6.3;90
56558;BME280;43358;50.356;12.456;2023-03-01T00:06:54;96494;;;-6.3;90
56558;BME280;43358;50.356;12.456;2023-03-01T00:07:56;96491;;;-6.3;89.9
56558;BME280;43358;50.356;12.456;2023-03-01T00:08:58;96494;;;-6.4;89.9
56558;BME280;43358;50.356;12.456;2023-03-01T00:10:00;96496;;;-6.4;90.2
56558;BME280;43358;50.356;12.456;2023-03-01T00:11:02;96495;;;-6.4;90.3
56558;BME280;43358;50.356;12.456;2023-03-01T00:12:04;96500;;;-6.4;90.5
56558;BME280;43358;50.356;12.456;2023-03-01T00:13:06;96502;;;-6.4;90.7
56558;BME280;43358;50.356;12.456;2023-03-01T00:14:08;96500;;;-6.4;90.4
56558;BME280;43358;50.356;12.456;2023-03-01T00:15:10;96501;;;-6.4;90.2
56558;BME280;43358;50.356;12.456;2023-03-01T00:16:14;96501;;;-6.5;90.2
56558;BME280;43358;50.356;12.456;2023-03-01T00:17:23;96505;;;-6.4;91.3
56558;BME280;43358;50.356;12.456;2023-03-01T00:18:23;96502;;;-6.4;90.8
56558;BME280;43358;50.356;12.456;2023-03-01T00:19:23;96502;;;-6.5;90.9
56558;BME280;43358;50.356;12.456;2023-03-01T00:20:23;96499;;;-6.4;90.8
56558;BME280;43358;50.356;12.456;2023-03-01T00:21:23;96499;;;-6.4;90.8
56558;BME280;43358;50.356;12.456;2023-03-01T00:22:24;96500;;;-6.4;91.3
56558;BME280;43358;50.356;12.456;2023-03-01T00:23:26;96501;;;-6.3;91.4
56558;BME280;43358;50.356;12.456;2023-03-01T00:24:28;96502;;;-6.3;91
56558;BME280;43358;50.356;12.456;2023-03-01T00:25:30;96500;;;-6.4;90.5
56558;BME280;43358;50.356;12.456;2023-03-01T00:26:32;96500;;;-6.4;90.3
56558;BME280;43358;50.356;12.456;2023-03-01T00:27:34;96498;;;-6.5;90.4
56558;BME280;43358;50.356;12.456;2023-03-01T00:28:36;96496;;;-6.5;90.5
56558;BME280;43358;50.356;12.456;2023-03-01T00:29:38;96493;;;-6.5;90.5
56558;BME280;43358;50.356;12.456;2023-03-01T00:30:40;96493;;;-6.6;90.5
56558;BME280;43358;50.356;12.456;2023-03-01T00:31:42;96494;;;-6.6;90.6
56558;BME280;43358;50.356;12.456;2023-03-01T00:32:44;96492;;;-6.6;90.5
56558;BME280;43358;50.356;12.456;2023-03-01T00:33:46;96490;;;-6.6;90.4
56558;BME280;43358;50.356;12.456;2023-03-01T00:34:48;96488;;;-6.7;90.4
56558;BME280;43358;50.356;12.456;2023-03-01T00:35:50;96489;;;-6.7;90.4
56558;BME280;43358;50.356;12.456;2023-03-01T00:36:52;96488;;;-6.7;90.7
56558;BME280;43358;50.356;12.456;2023-03-01T00:37:54;96489;;;-6.7;90.8
56558;BME280;43358;50.356;12.456;2023-03-01T00:38:56;96485;;;-6.7;90.6
56558;BME280;43358;50.356;12.456;2023-03-01T00:39:58;96484;;;-6.7;90.8
56558;BME280;43358;50.356;12.456;2023-03-01T00:41:02;96483;;;-6.7;90.9
56558;BME280;43358;50.356;12.456;2023-03-01T00:42:02;96482;;;-6.7;90.9
56558;BME280;43358;50.356;12.456;2023-03-01T00:43:04;96477;;;-6.7;90.9
56558;BME280;43358;50.356;12.456;2023-03-01T00:44:23;96476;;;-6.7;91.2
56558;BME280;43358;50.356;12.456;2023-03-01T00:45:24;96475;;;-6.7;91.2
56558;BME280;43358;50.356;12.456;2023-03-01T00:46:24;96473;;;-6.7;91
56558;BME280;43358;50.356;12.456;2023-03-01T00:47:23;96469;;;-6.7;90.8
56558;BME280;43358;50.356;12.456;2023-03-01T00:48:23;96471;;;-6.8;90.8
56558;BME280;43358;50.356;12.456;2023-03-01T00:49:23;96471;;;-6.8;90.9
56558;BME280;43358;50.356;12.456;2023-03-01T00:50:23;96471;;;-6.7;90.9
56558;BME280;43358;50.356;12.456;2023-03-01T00:51:24;96469;;;-6.7;91
56558;BME280;43358;50.356;12.456;2023-03-01T00:52:23;96466;;;-6.7;90.7
56558;BME280;43358;50.356;12.456;2023-03-01T00:53:26;96464;;;-6.8;90.5
56558;BME280;43358;50.356;12.456;2023-03-01T00:54:30;96465;;;-6.8;90.5
56558;BME280;43358;50.356;12.456;2023-03-01T00:55:32;96463;;;-6.8;90.5
56558;BME280;43358;50.356;12.456;2023-03-01T00:56:34;96463;;;-6.8;90.6
56558;BME280;43358;50.356;12.456;2023-03-01T00:57:36;96461;;;-6.8;90.5
56558;BME280;43358;50.356;12.456;2023-03-01T00:58:38;96464;;;-6.8;90.3
56558;BME280;43358;50.356;12.456;2023-03-01T00:59:40;96465;;;-6.8;90.3
56558;BME280;43358;50.356;12.456;2023-03-01T01:00:42;96461;;;-6.8;90.5
56558;BME280;43358;50.356;12.456;2023-03-01T01:01:44;96464;;;-6.8;90.2
56558;BME280;43358;50.356;12.456;2023-03-01T01:02:46;96464;;;-6.8;90.6
56558;BME280;43358;50.356;12.456;2023-03-01T01:03:48;96463;;;-6.8;90.6
56558;BME280;43358;50.356;12.456;2023-03-01T01:04:50;96461;;;-6.8;90.3
56558;BME280;43358;50.356;12.456;2023-03-01T01:05:52;96464;;;-6.8;90.5
56558;BME280;43358;50.356;12.456;2023-03-01T01:06:54;96463;;;-6.9;90.6
56558;BME280;43358;50.356;12.456;2023-03-01T01:07:56;96459;;;-6.9;90.6
56558;BME280;43358;50.356;12.456;2023-03-01T01:08:58;96458;;;-6.9;90.6
56558;BME280;43358;50.356;12.456;2023-03-01T01:10:00;96459;;;-6.9;90.7
56558;BME280;43358;50.356;12.456;2023-03-01T01:11:02;96461;;;-6.9;90.8
56558;BME280;43358;50.356;12.456;2023-03-01T01:12:04;96462;;;-6.9;90.7
56558;BME280;43358;50.356;12.456;2023-03-01T01:13:06;96461;;;-6.9;90.7
56558;BME280;43358;50.356;12.456;2023-03-01T01:14:08;96462;;;-6.9;90.9
56558;BME280;43358;50.356;12.456;2023-03-01T01:15:10;96461;;;-6.8;91.9
56558;BME280;43358;50.356;12.456;2023-03-01T01:16:12;96458;;;-6.8;91.7
56558;BME280;43358;50.356;12.456;2023-03-01T01:17:14;96456;;;-6.8;91.2
56558;BME280;43358;50.356;12.456;2023-03-01T01:18:16;96457;;;-6.8;91
56558;BME280;43358;50.356;12.456;2023-03-01T01:19:18;96454;;;-6.9;90.9
56558;BME280;43358;50.356;12.456;2023-03-01T01:20:20;96453;;;-6.9;91
56558;BME280;43358;50.356;12.456;2023-03-01T01:21:22;96453;;;-6.9;91
56558;BME280;43358;50.356;12.456;2023-03-01T01:22:24;96455;;;-6.9;90.8
56558;BME280;43358;50.356;12.456;2023-03-01T01:23:26;96451;;;-6.9;90.6
56558;BME280;43358;50.356;12.456;2023-03-01T01:24:28;96451;;;-6.9;90.5
56558;BME280;43358;50.356;12.456;2023-03-01T01:25:30;96456;;;-7;90.5
56558;BME280;43358;50.356;12.456;2023-03-01T01:26:33;96453;;;-7;90.6
56558;BME280;43358;50.356;12.456;2023-03-01T01:27:34;96452;;;-7;90.6
56558;BME280;43358;50.356;12.456;2023-03-01T01:28:36;96451;;;-7;90.6
56558;BME280;43358;50.356;12.456;2023-03-01T01:29:38;96449;;;-7;90.5
56558;BME280;43358;50.356;12.456;2023-03-01T01:30:40;96447;;;-7;90.5
56558;BME280;43358;50.356;12.456;2023-03-01T01:31:42;96450;;;-7;90.6
56558;BME280;43358;50.356;12.456;2023-03-01T01:32:44;96445;;;-7;90.9
56558;BME280;43358;50.356;12.456;2023-03-01T01:33:46;96445;;;-7;90.9
56558;BME280;43358;50.356;12.456;2023-03-01T01:34:48;96446;;;-7;90.6
56558;BME280;43358;50.356;12.456;2023-03-01T01:35:50;96448;;;-7;90.2
56558;BME280;43358;50.356;12.456;2023-03-01T01:36:52;96443;;;-7;90.5
56558;BME280;43358;50.356;12.456;2023-03-01T01:37:54;96440;;;-7;90.5
56558;BME280;43358;50.356;12.456;2023-03-01T01:38:56;96441;;;-7;90.5
56558;BME280;43358;50.356;12.456;2023-03-01T01:39:58;96443;;;-7;90.5
56558;BME280;43358;50.356;12.456;2023-03-01T01:41:00;96440;;;-7;90.5
56558;BME280;43358;50.356;12.456;2023-03-01T01:42:02;96442;;;-7.1;90.6
56558;BME280;43358;50.356;12.456;2023-03-01T01:43:04;96440;;;-7.1;90.4
56558;BME280;43358;50.356;12.456;2023-03-01T01:44:10;96437;;;-7.1;90.9
56558;BME280;43358;50.356;12.456;2023-03-01T01:45:24;96436;;;-7.1;91
56558;BME280;43358;50.356;12.456;2023-03-01T01:46:13;96437;;;-7.1;90.8
56558;BME280;43358;50.356;12.456;2023-03-01T01:47:13;96434;;;-7.1;90.6
56558;BME280;43358;50.356;12.456;2023-03-01T01:48:14;96433;;;-7.1;90.5
56558;BME280;43358;50.356;12.456;2023-03-01T01:49:17;96435;;;-7.1;90.4
56558;BME280;43358;50.356;12.456;2023-03-01T01:50:18;96435;;;-7.2;90.4
56558;BME280;43358;50.356;12.456;2023-03-01T01:51:21;96433;;;-7.2;90.4
56558;BME280;43358;50.356;12.456;2023-03-01T01:52:23;96433;;;-7.1;90.4
56558;BME280;43358;50.356;12.456;2023-03-01T01:53:24;96429;;;-7.2;90.3
56558;BME280;43358;50.356;12.456;2023-03-01T01:54:27;96430;;;-7.1;90.2
56558;BME280;43358;50.356;12.456;2023-03-01T01:55:28;96429;;;-7.1;90.1
56558;BME280;43358;50.356;12.456;2023-03-01T01:56:30;96426;;;-7.2;90
56558;BME280;43358;50.356;12.456;2023-03-01T01:57:32;96427;;;-7.2;90
56558;BME280;43358;50.356;12.456;2023-03-01T01:58:34;96423;;;-7.2;90
56558;BME280;43358;50.356;12.456;2023-03-01T01:59:36;96423;;;-7.2;90.1
56558;BME280;43358;50.356;12.456;2023-03-01T02:01:40;96420;;;-7.1;90.5
56558;BME280;43358;50.356;12.456;2023-03-01T02:02:42;96421;;;-7.1;90.3
56558;BME280;43358;50.356;12.456;2023-03-01T02:03:44;96419;;;-7.2;90.2
56558;BME280;43358;50.356;12.456;2023-03-01T02:04:46;96420;;;-7.2;90.3
56558;BME280;43358;50.356;12.456;2023-03-01T02:05:49;96416;;;-7.2;90.1
56558;BME280;43358;50.356;12.456;2023-03-01T02:06:51;96416;;;-7.2;90.2
56558;BME280;43358;50.356;12.456;2023-03-01T02:07:52;96414;;;-7.1;91.3
56558;BME280;43358;50.356;12.456;2023-03-01T02:08:54;96411;;;-7;91.4
56558;BME280;43358;50.356;12.456;2023-03-01T02:09:56;96414;;;-6.9;91
56558;BME280;43358;50.356;12.456;2023-03-01T02:10:58;96410;;;-6.8;90.4
56558;BME280;43358;50.356;12.456;2023-03-01T02:12:00;96404;;;-6.8;90
56558;BME280;43358;50.356;12.456;2023-03-01T02:13:02;96404;;;-6.8;89.6
56558;BME280;43358;50.356;12.456;2023-03-01T02:14:04;96404;;;-6.9;89.5
56558;BME280;43358;50.356;12.456;2023-03-01T02:15:06;96405;;;-7;89.3
56558;BME280;43358;50.356;12.456;2023-03-01T02:16:08;96400;;;-7;89
56558;BME280;43358;50.356;12.456;2023-03-01T02:17:10;96399;;;-7.1;88.8
56558;BME280;43358;50.356;12.456;2023-03-01T02:18:14;96398;;;-7.2;88.8
56558;BME280;43358;50.356;12.456;2023-03-01T02:19:16;96396;;;-7.2;88.9
56558;BME280;43358;50.356;12.456;2023-03-01T02:20:18;96394;;;-7.2;89.6
56558;BME280;43358;50.356;12.456;2023-03-01T02:21:22;96396;;;-7.3;89.4
56558;BME280;43358;50.356;12.456;2023-03-01T02:22:20;96398;;;-7.3;89.9
56558;BME280;43358;50.356;12.456;2023-03-01T02:23:22;96401;;;-7.3;90.4
56558;BME280;43358;50.356;12.456;2023-03-01T02:24:25;96398;;;-7.3;89.6
56558;BME280;43358;50.356;12.456;2023-03-01T02:25:27;96397;;;-7.3;90.1
56558;BME280;43358;50.356;12.456;2023-03-01T02:26:29;96397;;;-7.3;90.4
56558;BME280;43358;50.356;12.456;2023-03-01T02:27:32;96395;;;-7.4;89.9
56558;BME280;43358;50.356;12.456;2023-03-01T02:28:32;96401;;;-7.4;89.6
56558;BME280;43358;50.356;12.456;2023-03-01T02:29:34;96395;;;-7.4;89.6
56558;BME280;43358;50.356;12.456;2023-03-01T02:30:36;96400;;;-7.5;89.7
56558;BME280;43358;50.356;12.456;2023-03-01T02:31:38;96402;;;-7.5;89.9
56558;BME280;43358;50.356;12.456;2023-03-01T02:32:40;96398;;;-7.5;90
56558;BME280;43358;50.356;12.456;2023-03-01T02:33:42;96406;;;-7.5;90
56558;BME280;43358;50.356;12.456;2023-03-01T02:34:44;96404;;;-7.5;89.9
56558;BME280;43358;50.356;12.456;2023-03-01T02:35:46;96403;;;-7.5;89.7
56558;BME280;43358;50.356;12.456;2023-03-01T02:36:48;96405;;;-7.5;89.7
56558;BME280;43358;50.356;12.456;2023-03-01T02:37:50;96403;;;-7.6;89.8
56558;BME280;43358;50.356;12.456;2023-03-01T02:38:52;96399;;;-7.6;89.9
56558;BME280;43358;50.356;12.456;2023-03-01T02:39:55;96397;;;-7.6;90
56558;BME280;43358;50.356;12.456;2023-03-01T02:40:56;96396;;;-7.6;89.9
56558;BME280;43358;50.356;12.456;2023-03-01T02:41:58;96394;;;-7.6;89.9
56558;BME280;43358;50.356;12.456;2023-03-01T02:43:00;96391;;;-7.6;90
56558;BME280;43358;50.356;12.456;2023-03-01T02:44:02;96393;;;-7.6;90
56558;BME280;43358;50.356;12.456;2023-03-01T02:45:04;96390;;;-7.6;90
56558;BME280;43358;50.356;12.456;2023-03-01T02:46:06;96393;;;-7.6;89.9
56558;BME280;43358;50.356;12.456;2023-03-01T02:47:08;96393;;;-7.6;90.8
56558;BME280;43358;50.356;12.456;2023-03-01T02:48:10;96392;;;-7.5;90.9
56558;BME280;43358;50.356;12.456;2023-03-01T02:49:20;96391;;;-7.5;90
56558;BME280;43358;50.356;12.456;2023-03-01T02:50:15;96388;;;-7.5;89.5
56558;BME280;43358;50.356;12.456;2023-03-01T02:51:23;96386;;;-7.6;89.2
56558;BME280;43358;50.356;12.456;2023-03-01T02:52:44;96391;;;-7.6;89.3
56558;BME280;43358;50.356;12.456;2023-03-01T02:53:21;96389;;;-7.6;89.4
56558;BME280;43358;50.356;12.456;2023-03-01T02:54:23;96389;;;-7.7;89.5
56558;BME280;43358;50.356;12.456;2023-03-01T02:55:24;96387;;;-7.7;90
56558;BME280;43358;50.356;12.456;2023-03-01T02:56:26;96387;;;-7.7;89.9
56558;BME280;43358;50.356;12.456;2023-03-01T02:57:28;96387;;;-7.7;89.9
56558;BME280;43358;50.356;12.456;2023-03-01T02:58:30;96390;;;-7.7;90.1
56558;BME280;43358;50.356;12.456;2023-03-01T02:59:32;96386;;;-7.7;90
56558;BME280;43358;50.356;12.456;2023-03-01T03:00:35;96389;;;-7.7;90
56558;BME280;43358;50.356;12.456;2023-03-01T03:01:36;96389;;;-7.7;90.1
56558;BME280;43358;50.356;12.456;2023-03-01T03:02:38;96388;;;-7.8;90.3
56558;BME280;43358;50.356;12.456;2023-03-01T03:03:40;96386;;;-7.8;90.4
56558;BME280;43358;50.356;12.456;2023-03-01T03:04:42;96386;;;-7.8;90.2
56558;BME280;43358;50.356;12.456;2023-03-01T03:05:44;96384;;;-7.8;90.1
56558;BME280;43358;50.356;12.456;2023-03-01T03:06:46;96383;;;-7.8;90.1
56558;BME280;43358;50.356;12.456;2023-03-01T03:07:48;96381;;;-7.8;90.5
56558;BME280;43358;50.356;12.456;2023-03-01T03:08:50;96384;;;-7.7;90.2
56558;BME280;43358;50.356;12.456;2023-03-01T03:09:52;96383;;;-7.7;90
56558;BME280;43358;50.356;12.456;2023-03-01T03:10:54;96383;;;-7.7;90.7
56558;BME280;43358;50.356;12.456;2023-03-01T03:11:56;96381;;;-7.6;90.8
56558;BME280;43358;50.356;12.456;2023-03-01T03:12:58;96378;;;-7.7;89.9
56558;BME280;43358;50.356;12.456;2023-03-01T03:14:00;96381;;;-7.7;89.5
56558;BME280;43358;50.356;12.456;2023-03-01T03:15:24;96384;;;-7.7;89.9
56558;BME280;43358;50.356;12.456;2023-03-01T03:16:23;96382;;;-7.7;90.9
56558;BME280;43358;50.356;12.456;2023-03-01T03:17:23;96380;;;-7.7;90.9
56558;BME280;43358;50.356;12.456;2023-03-01T03:18:24;96374;;;-7.7;90.3
56558;BME280;43358;50.356;12.456;2023-03-01T03:19:23;96375;;;-7.7;89.9
56558;BME280;43358;50.356;12.456;2023-03-01T03:20:24;96375;;;-7.8;89.5
56558;BME280;43358;50.356;12.456;2023-03-01T03:21:23;96374;;;-7.8;89.5
56558;BME280;43358;50.356;12.456;2023-03-01T03:22:23;96376;;;-7.8;90
56558;BME280;43358;50.356;12.456;2023-03-01T03:23:23;96373;;;-7.8;90
56558;BME280;43358;50.356;12.456;2023-03-01T03:24:23;96371;;;-7.9;90
56558;BME280;43358;50.356;12.456;2023-03-01T03:25:24;96371;;;-7.9;89.9
56558;BME280;43358;50.356;12.456;2023-03-01T03:26:24;96370;;;-7.9;90.1
56558;BME280;43358;50.356;12.456;2023-03-01T03:27:26;96368;;;-7.9;90
56558;BME280;43358;50.356;12.456;2023-03-01T03:28:28;96369;;;-7.9;90.2
56558;BME280;43358;50.356;12.456;2023-03-01T03:29:30;96369;;;-7.9;90.1
56558;BME280;43358;50.356;12.456;2023-03-01T03:30:32;96373;;;-8;90.1
56558;BME280;43358;50.356;12.456;2023-03-01T03:31:34;96375;;;-8;90.1
56558;BME280;43358;50.356;12.456;2023-03-01T03:32:36;96374;;;-8;90.2
56558;BME280;43358;50.356;12.456;2023-03-01T03:33:38;96372;;;-8;90.3
56558;BME280;43358;50.356;12.456;2023-03-01T03:34:40;96370;;;-8;90.3
56558;BME280;43358;50.356;12.456;2023-03-01T03:35:43;96373;;;-8;90.3
56558;BME280;43358;50.356;12.456;2023-03-01T03:36:44;96372;;;-8;90.3
56558;BME280;43358;50.356;12.456;2023-03-01T03:37:46;96374;;;-8;90.2
56558;BME280;43358;50.356;12.456;2023-03-01T03:38:48;96373;;;-8;90.3
56558;BME280;43358;50.356;12.456;2023-03-01T03:39:50;96373;;;-8;90.3
56558;BME280;43358;50.356;12.456;2023-03-01T03:40:54;96374;;;-8;90.4
56558;BME280;43358;50.356;12.456;2023-03-01T03:41:54;96372;;;-7.9;90.9
56558;BME280;43358;50.356;12.456;2023-03-01T03:42:56;96371;;;-7.9;90.2
56558;BME280;43358;50.356;12.456;2023-03-01T03:43:58;96369;;;-7.9;89.7
56558;BME280;43358;50.356;12.456;2023-03-01T03:45:00;96367;;;-7.9;90.5
56558;BME280;43358;50.356;12.456;2023-03-01T03:46:02;96365;;;-7.9;90.4
56558;BME280;43358;50.356;12.456;2023-03-01T03:47:04;96369;;;-7.9;89.9
56558;BME280;43358;50.356;12.456;2023-03-01T03:48:06;96367;;;-7.9;89.7
56558;BME280;43358;50.356;12.456;2023-03-01T03:49:08;96368;;;-8;89.5
56558;BME280;43358;50.356;12.456;2023-03-01T03:50:10;96365;;;-8;89.3
56558;BME280;43358;50.356;12.456;2023-03-01T03:51:12;96362;;;-7.9;89.5
56558;BME280;43358;50.356;12.456;2023-03-01T03:52:14;96361;;;-8;89.7
56558;BME280;43358;50.356;12.456;2023-03-01T03:53:16;96358;;;-8;89.3
56558;BME280;43358;50.356;12.456;2023-03-01T03:54:18;96358;;;-8;89.2
56558;BME280;43358;50.356;12.456;2023-03-01T03:55:20;96361;;;-8.1;89.4
56558;BME280;43358;50.356;12.456;2023-03-01T03:56:22;96359;;;-8.1;89.5
56558;BME280;43358;50.356;12.456;2023-03-01T03:57:24;96360;;;-8.1;89.4
56558;BME280;43358;50.356;12.456;2023-03-01T03:58:26;96360;;;-8.1;89.3
56558;BME280;43358;50.356;12.456;2023-03-01T03:59:28;96360;;;-8.1;89.5
56558;BME280;43358;50.356;12.456;2023-03-01T04:00:30;96360;;;-8.1;89.5
56558;BME280;43358;50.356;12.456;2023-03-01T04:01:32;96364;;;-8.1;89.3
56558;BME280;43358;50.356;12.456;2023-03-01T04:02:34;96364;;;-8.2;89
56558;BME280;43358;50.356;12.456;2023-03-01T04:03:36;96365;;;-8.2;88.9
56558;BME280;43358;50.356;12.456;2023-03-01T04:04:38;96364;;;-8.2;88.9
56558;BME280;43358;50.356;12.456;2023-03-01T04:05:40;96371;;;-8.2;89.3
56558;BME280;43358;50.356;12.456;2023-03-01T04:06:42;96370;;;-8.1;90.1
56558;BME280;43358;50.356;12.456;2023-03-01T04:07:44;96369;;;-8.1;90.6
56558;BME280;43358;50.356;12.456;2023-03-01T04:08:46;96370;;;-8;91.3
56558;BME280;43358;50.356;12.456;2023-03-01T04:09:48;96370;;;-7.9;91.5
56558;BME280;43358;50.356;12.456;2023-03-01T04:10:51;96369;;;-7.9;91.1
56558;BME280;43358;50.356;12.456;2023-03-01T04:11:52;96369;;;-7.9;90.4
56558;BME280;43358;50.356;12.456;2023-03-01T04:12:54;96372;;;-8;89.8
56558;BME280;43358;50.356;12.456;2023-03-01T04:13:56;96373;;;-8.1;89.5
56558;BME280;43358;50.356;12.456;2023-03-01T04:14:58;96371;;;-8.1;89.5
56558;BME280;43358;50.356;12.456;2023-03-01T04:16:00;96367;;;-8.2;89.6
56558;BME280;43358;50.356;12.456;2023-03-01T04:17:02;96365;;;-8.2;89.6
56558;BME280;43358;50.356;12.456;2023-03-01T04:18:04;96367;;;-8.2;89.7
56558;BME280;43358;50.356;12.456;2023-03-01T04:19:06;96373;;;-8.3;89.9
56558;BME280;43358;50.356;12.456;2023-03-01T04:20:08;96370;;;-8.3;89.9
56558;BME280;43358;50.356;12.456;2023-03-01T04:21:10;96370;;;-8.3;89.7
56558;BME280;43358;50.356;12.456;2023-03-01T04:22:12;96370;;;-8.3;89.5
56558;BME280;43358;50.356;12.456;2023-03-01T04:23:14;96370;;;-8.3;89.7
56558;BME280;43358;50.356;12.456;2023-03-01T04:24:16;96371;;;-8.3;90.4
56558;BME280;43358;50.356;12.456;2023-03-01T04:25:18;96371;;;-8.3;90.2
56558;BME280;43358;50.356;12.456;2023-03-01T04:26:20;96366;;;-8.3;90.1
56558;BME280;43358;50.356;12.456;2023-03-01T04:27:22;96363;;;-8.3;90.2
56558;BME280;43358;50.356;12.456;2023-03-01T04:28:24;96361;;;-8.3;90.2
56558;BME280;43358;50.356;12.456;2023-03-01T04:29:26;96357;;;-8.3;89.8
56558;BME280;43358;50.356;12.456;2023-03-01T04:30:28;96356;;;-8.3;89.8
56558;BME280;43358;50.356;12.456;2023-03-01T04:31:30;96356;;;-8.3;89.9
56558;BME280;43358;50.356;12.456;2023-03-01T04:32:32;96354;;;-8.3;90.1
56558;BME280;43358;50.356;12.456;2023-03-01T04:33:34;96351;;;-8.3;90.3
56558;BME280;43358;50.356;12.456;2023-03-01T04:34:36;96356;;;-8.3;89.8
56558;BME280;43358;50.356;12.456;2023-03-01T04:35:38;96352;;;-8.3;89.9
56558;BME280;43358;50.356;12.456;2023-03-01T04:36:40;96348;;;-8.2;90.6
56558;BME280;43358;50.356;12.456;2023-03-01T04:38:44;96355;;;-8.1;90.5
56558;BME280;43358;50.356;12.456;2023-03-01T04:39:46;96361;;;-8.1;90.2
56558;BME280;43358;50.356;12.456;2023-03-01T04:40:48;96364;;;-8.2;89.7
56558;BME280;43358;50.356;12.456;2023-03-01T04:41:50;96365;;;-8.2;89.7
56558;BME280;43358;50.356;12.456;2023-03-01T04:42:52;96366;;;-8.3;89.9
56558;BME280;43358;50.356;12.456;2023-03-01T04:43:54;96367;;;-8.3;89.7
56558;BME280;43358;50.356;12.456;2023-03-01T04:44:56;96367;;;-8.3;89.5
56558;BME280;43358;50.356;12.456;2023-03-01T04:45:59;96366;;;-8.4;89.2
56558;BME280;43358;50.356;12.456;2023-03-01T04:47:00;96367;;;-8.4;89.4
56558;BME280;43358;50.356;12.456;2023-03-01T04:48:02;96364;;;-8.4;89.6
56558;BME280;43358;50.356;12.456;2023-03-01T04:49:04;96371;;;-8.4;89.7
56558;BME280;43358;50.356;12.456;2023-03-01T04:50:06;96367;;;-8.4;89.8
56558;BME280;43358;50.356;12.456;2023-03-01T04:51:08;96366;;;-8.4;90.3
56558;BME280;43358;50.356;12.456;2023-03-01T04:52:10;96361;;;-8.4;90.4
56558;BME280;43358;50.356;12.456;2023-03-01T04:53:13;96360;;;-8.4;90.1
56558;BME280;43358;50.356;12.456;2023-03-01T04:54:15;96354;;;-8.4;90.6
56558;BME280;43358;50.356;12.456;2023-03-01T04:55:17;96352;;;-8.2;91
56558;BME280;43358;50.356;12.456;2023-03-01T04:56:19;96346;;;-8.2;90.7
56558;BME280;43358;50.356;12.456;2023-03-01T04:57:21;96346;;;-8.2;90.7
56558;BME280;43358;50.356;12.456;2023-03-01T04:58:23;96348;;;-8.2;91.2
56558;BME280;43358;50.356;12.456;2023-03-01T04:59:26;96347;;;-8.2;90.2
56558;BME280;43358;50.356;12.456;2023-03-01T05:00:28;96347;;;-8.2;90
56558;BME280;43358;50.356;12.456;2023-03-01T05:01:30;96348;;;-8.3;89.9
56558;BME280;43358;50.356;12.456;2023-03-01T05:02:32;96345;;;-8.3;90
56558;BME280;43358;50.356;12.456;2023-03-01T05:03:34;96346;;;-8.4;90
56558;BME280;43358;50.356;12.456;2023-03-01T05:04:36;96345;;;-8.4;90.1
56558;BME280;43358;50.356;12.456;2023-03-01T05:05:38;96351;;;-8.4;90.4
56558;BME280;43358;50.356;12.456;2023-03-01T05:06:40;96353;;;-8.4;90.1
56558;BME280;43358;50.356;12.456;2023-03-01T05:07:42;96350;;;-8.4;90
56558;BME280;43358;50.356;12.456;2023-03-01T05:08:44;96347;;;-8.5;89.7
56558;BME280;43358;50.356;12.456;2023-03-01T05:09:46;96349;;;-8.5;89.8
56558;BME280;43358;50.356;12.456;2023-03-01T05:10:48;96351;;;-8.4;90.2
56558;BME280;43358;50.356;12.456;2023-03-01T05:11:50;96352;;;-8.5;90.5
56558;BME280;43358;50.356;12.456;2023-03-01T05:12:52;96351;;;-8.5;90.1
56558;BME280;43358;50.356;12.456;2023-03-01T05:13:54;96354;;;-8.5;89.6
56558;BME280;43358;50.356;12.456;2023-03-01T05:14:56;96355;;;-8.5;89.6
56558;BME280;43358;50.356;12.456;2023-03-01T05:15:59;96354;;;-8.5;90.2
56558;BME280;43358;50.356;12.456;2023-03-01T05:17:00;96352;;;-8.5;90
56558;BME280;43358;50.356;12.456;2023-03-01T05:18:02;96348;;;-8.5;89.7
56558;BME280;43358;50.356;12.456;2023-03-01T05:19:04;96351;;;-8.6;89.7
56558;BME280;43358;50.356;12.456;2023-03-01T05:20:06;96347;;;-8.6;89.8
56558;BME280;43358;50.356;12.456;2023-03-01T05:21:08;96349;;;-8.6;90
56558;BME280;43358;50.356;12.456;2023-03-01T05:22:10;96348;;;-8.6;90
56558;BME280;43358;50.356;12.456;2023-03-01T05:23:12;96348;;;-8.6;90.1
56558;BME280;43358;50.356;12.456;2023-03-01T05:24:14;96345;;;-8.6;90
56558;BME280;43358;50.356;12.456;2023-03-01T05:25:16;96346;;;-8.6;89.9
56558;BME280;43358;50.356;12.456;2023-03-01T05:26:18;96342;;;-8.6;90
56558;BME280;43358;50.356;12.456;2023-03-01T05:27:20;96342;;;-8.6;90.1
56558;BME280;43358;50.356;12.456;2023-03-01T05:28:22;96346;;;-8.6;90.1
56558;BME280;43358;50.356;12.456;2023-03-01T05:29:25;96346;;;-8.6;89.8
56558;BME280;43358;50.356;12.456;2023-03-01T05:30:26;96345;;;-8.6;89.7
56558;BME280;43358;50.356;12.456;2023-03-01T05:31:28;96348;;;-8.6;89.4
56558;BME280;43358;50.356;12.456;2023-03-01T05:32:30;96345;;;-8.6;89.2
56558;BME280;43358;50.356;12.456;2023-03-01T05:33:32;96344;;;-8.6;89.1
56558;BME280;43358;50.356;12.456;2023-03-01T05:34:34;96344;;;-8.6;88.9
56558;BME280;43358;50.356;12.456;2023-03-01T05:35:36;96346;;;-8.6;89.1
56558;BME280;43358;50.356;12.456;2023-03-01T05:36:38;96344;;;-8.6;89.3
56558;BME280;43358;50.356;12.456;2023-03-01T05:37:40;96345;;;-8.7;89.1
56558;BME280;43358;50.356;12.456;2023-03-01T05:38:42;96342;;;-8.6;89.3
56558;BME280;43358;50.356;12.456;2023-03-01T05:39:44;96347;;;-8.7;89.1
56558;BME280;43358;50.356;12.456;2023-03-01T05:40:46;96347;;;-8.6;89.2
56558;BME280;43358;50.356;12.456;2023-03-01T05:41:48;96346;;;-8.7;89.1
56558;BME280;43358;50.356;12.456;2023-03-01T05:42:51;96352;;;-8.7;89
56558;BME280;43358;50.356;12.456;2023-03-01T05:43:52;96350;;;-8.7;89.1
56558;BME280;43358;50.356;12.456;2023-03-01T05:44:54;96348;;;-8.6;89.5
56558;BME280;43358;50.356;12.456;2023-03-01T05:45:57;96347;;;-8.6;89.2
56558;BME280;43358;50.356;12.456;2023-03-01T05:46:58;96346;;;-8.6;89
56558;BME280;43358;50.356;12.456;2023-03-01T05:48:00;96348;;;-8.6;88.8
56558;BME280;43358;50.356;12.456;2023-03-01T05:49:02;96346;;;-8.7;88.6
56558;BME280;43358;50.356;12.456;2023-03-01T05:50:04;96346;;;-8.7;88.6
56558;BME280;43358;50.356;12.456;2023-03-01T05:51:06;96346;;;-8.7;88.7